sensor_id;sensor_type;location;lat;lon;timestamp;pressure;altitude;pressure_sealevel;temperature;humidity
78198;BME280;67472;51.554;7.812;2023-04-01T00:00:35;98625.34;;;9.66;100.00
78198;BME280;67472;51.554;7.812;2023-04-01T00:03:21;98634.56;;;9.62;100.00
78198;BME280;67472;51.554;7.812;2023-04-01T00:06:06;98634.75;;;9.60;100.00
78198;BME280;67472;51.554;7.812;2023-04-01T00:08:51;98639.34;;;9.58;100.00
78198;BME280;67472;51.554;7.812;2023-04-01T00:11:37;98634.06;;;9.58;100.00
78198;BME280;67472;51.554;7.812;2023-04-01T00:14:22;98637.72;;;9.57;100.00
78198;BME280;67472;51.554;7.812;2023-04-01T00:17:07;98639.19;;;9.60;100.00
78198;BME280;67472;51.554;7.812;2023-04-01T00:19:55;98639.03;;;9.53;100.00
78198;BME280;67472;51.554;7.812;2023-04-01T00:22:40;98633.13;;;9.51;100.00
78198;BME280;67472;51.554;7.812;2023-04-01T00:25:26;98632.31;;;9.51;100.00
78198;BME280;67472;51.554;7.812;2023-04-01T00:28:10;98637.09;;;9.47;100.00
78198;BME280;67472;51.554;7.812;2023-04-01T00:30:55;98634.41;;;9.55;100.00
78198;BME280;67472;51.554;7.812;2023-04-01T00:33:40;98636.94;;;9.49;100.00
78198;BME280;67472;51.554;7.812;2023-04-01T00:36:26;98636.09;;;9.48;100.00
78198;BME280;67472;51.554;7.812;2023-04-01T00:39:11;98646.81;;;9.47;100.00
78198;BME280;67472;51.554;7.812;2023-04-01T00:41:55;98641.03;;;9.43;100.00
78198;BME280;67472;51.554;7.812;2023-04-01T00:44:42;98636.09;;;9.48;100.00
78198;BME280;67472;51.554;7.812;2023-04-01T00:47:27;98633.28;;;9.50;100.00
78198;BME280;67472;51.554;7.812;2023-04-01T00:50:13;98636.28;;;9.39;100.00
78198;BME280;67472;51.554;7.812;2023-04-01T00:52:59;98641.22;;;9.42;100.00
78198;BME280;67472;51.554;7.812;2023-04-01T00:58:58;98641.88;;;9.44;100.00
78198;BME280;67472;51.554;7.812;2023-04-01T01:01:45;98646.50;;;9.42;100.00
78198;BME280;67472;51.554;7.812;2023-04-01T01:04:33;98641.22;;;9.42;100.00
78198;BME280;67472;51.554;7.812;2023-04-01T01:07:39;98643.22;;;9.32;100.00
78198;BME280;67472;51.554;7.812;2023-04-01T01:10:31;98645.06;;;9.31;100.00
78198;BME280;67472;51.554;7.812;2023-04-01T01:13:34;98647.81;;;9.38;100.00
78198;BME280;67472;51.554;7.812;2023-04-01T01:16:26;98645.84;;;9.32;100.00
78198;BME280;67472;51.554;7.812;2023-04-01T01:28:30;98638.31;;;9.21;100.00
78198;BME280;67472;51.554;7.812;2023-04-01T01:32:02;98646.88;;;9.23;100.00
78198;BME280;67472;51.554;7.812;2023-04-01T01:37:41;98642.91;;;9.27;100.00
78198;BME280;67472;51.554;7.812;2023-04-01T01:40:29;98648.03;;;9.28;100.00
78198;BME280;67472;51.554;7.812;2023-04-01T01:43:18;98627.28;;;9.25;100.00
78198;BME280;67472;51.554;7.812;2023-04-01T01:46:09;98643.41;;;9.30;100.00
78198;BME280;67472;51.554;7.812;2023-04-01T01:48:55;98638.47;;;9.27;100.00
78198;BME280;67472;51.554;7.812;2023-04-01T01:51:41;98637.94;;;9.32;100.00
78198;BME280;67472;51.554;7.812;2023-04-01T01:54:29;98634.81;;;9.36;100.00
78198;BME280;67472;51.554;7.812;2023-04-01T01:57:14;98636.66;;;9.28;100.00
78198;BME280;67472;51.554;7.812;2023-04-01T02:00:09;98631.22;;;9.37;100.00
78198;BME280;67472;51.554;7.812;2023-04-01T02:02:59;98626.59;;;9.31;100.00
78198;BME280;67472;51.554;7.812;2023-04-01T02:05:45;98626.44;;;9.33;100.00
78198;BME280;67472;51.554;7.812;2023-04-01T02:08:37;98628.09;;;9.34;100.00
78198;BME280;67472;51.554;7.812;2023-04-01T02:11:32;98626.59;;;9.31;100.00
78198;BME280;67472;51.554;7.812;2023-04-01T02:17:12;98629.72;;;9.27;100.00
78198;BME280;67472;51.554;7.812;2023-04-01T02:20:06;98631.22;;;9.29;100.00
78198;BME280;67472;51.554;7.812;2023-04-01T02:22:55;98632.69;;;9.32;100.00
78198;BME280;67472;51.554;7.812;2023-04-01T02:25:41;98630.88;;;9.32;100.00
78198;BME280;67472;51.554;7.812;2023-04-01T02:28:28;98632.88;;;9.22;100.00
78198;BME280;67472;51.554;7.812;2023-04-01T02:31:14;98631.72;;;9.25;100.00
78198;BME280;67472;51.554;7.812;2023-04-01T02:34:00;98636.63;;;9.36;100.00
78198;BME280;67472;51.554;7.812;2023-04-01T02:36:46;98634.34;;;9.33;100.00
78198;BME280;67472;51.554;7.812;2023-04-01T02:39:32;98637.31;;;9.30;100.00
78198;BME280;67472;51.554;7.812;2023-04-01T02:42:17;98634.97;;;9.35;100.00
78198;BME280;67472;51.554;7.812;2023-04-01T02:45:03;98630.72;;;9.34;100.00
78198;BME280;67472;51.554;7.812;2023-04-01T02:47:48;98646.03;;;9.30;100.00
78198;BME280;67472;51.554;7.812;2023-04-01T02:50:33;98632.38;;;9.27;100.00
78198;BME280;67472;51.554;7.812;2023-04-01T02:53:19;98641.94;;;9.28;100.00
78198;BME280;67472;51.554;7.812;2023-04-01T02:56:04;98637.63;;;9.27;100.00
78198;BME280;67472;51.554;7.812;2023-04-01T02:58:49;98637.31;;;9.30;100.00
78198;BME280;67472;51.554;7.812;2023-04-01T03:01:35;98627.41;;;9.32;100.00
78198;BME280;67472;51.554;7.812;2023-04-01T03:04:20;98625.44;;;9.34;100.00
78198;BME280;67472;51.554;7.812;2023-04-01T03:07:05;98621.00;;;9.26;100.00
78198;BME280;67472;51.554;7.812;2023-04-01T03:09:50;98621.19;;;9.25;100.00
78198;BME280;67472;51.554;7.812;2023-04-01T03:12:35;98615.91;;;9.25;100.00
78198;BME280;67472;51.554;7.812;2023-04-01T03:15:20;98617.91;;;9.23;100.00
78198;BME280;67472;51.554;7.812;2023-04-01T03:18:05;98618.22;;;9.28;100.00
78198;BME280;67472;51.554;7.812;2023-04-01T03:20:50;98608.16;;;9.31;100.00
78198;BME280;67472;51.554;7.812;2023-04-01T03:23:35;98608.66;;;9.27;100.00
78198;BME280;67472;51.554;7.812;2023-04-01T03:26:20;98605.88;;;9.28;100.00
78198;BME280;67472;51.554;7.812;2023-04-01T03:29:06;98608.81;;;9.33;100.00
78198;BME280;67472;51.554;7.812;2023-04-01T03:31:51;98595.97;;;9.30;100.00
78198;BME280;67472;51.554;7.812;2023-04-01T03:34:35;98600.59;;;9.28;100.00
78198;BME280;67472;51.554;7.812;2023-04-01T03:37:21;98601.91;;;9.24;100.00
78198;BME280;67472;51.554;7.812;2023-04-01T03:40:06;98605.53;;;9.31;100.00
78198;BME280;67472;51.554;7.812;2023-04-01T03:42:51;98605.19;;;9.34;100.00
78198;BME280;67472;51.554;7.812;2023-04-01T03:45:45;98613.91;;;9.35;100.00
78198;BME280;67472;51.554;7.812;2023-04-01T03:48:31;98605.72;;;9.22;100.00
78198;BME280;67472;51.554;7.812;2023-04-01T03:51:15;98609.19;;;9.22;100.00
78198;BME280;67472;51.554;7.812;2023-04-01T03:54:00;98613.97;;;9.19;100.00
78198;BME280;67472;51.554;7.812;2023-04-01T03:56:46;98608.16;;;9.23;100.00
78198;BME280;67472;51.554;7.812;2023-04-01T03:59:31;98620.19;;;9.18;100.00
78198;BME280;67472;51.554;7.812;2023-04-01T04:02:17;98622.19;;;9.16;100.00
78198;BME280;67472;51.554;7.812;2023-04-01T04:05:02;98626.81;;;9.14;100.00
78198;BME280;67472;51.554;7.812;2023-04-01T04:07:46;98630.59;;;9.19;100.00
78198;BME280;67472;51.554;7.812;2023-04-01T04:10:31;98624.66;;;9.17;100.00
78198;BME280;67472;51.554;7.812;2023-04-01T04:13:16;98622.38;;;9.06;100.00
78198;BME280;67472;51.554;7.812;2023-04-01T04:16:08;98626.16;;;9.03;100.00
78198;BME280;67472;51.554;7.812;2023-04-01T04:18:57;98632.22;;;9.12;100.00
78198;BME280;67472;51.554;7.812;2023-04-01T04:21:42;98632.53;;;9.17;100.00
78198;BME280;67472;51.554;7.812;2023-04-01T04:24:28;98636.16;;;9.24;100.00
78198;BME280;67472;51.554;7.812;2023-04-01T04:27:27;98631.91;;;9.15;100.00
78198;BME280;67472;51.554;7.812;2023-04-01T04:30:25;98641.59;;;9.15;100.00
78198;BME280;67472;51.554;7.812;2023-04-01T04:33:10;98649.38;;;9.00;100.00
78198;BME280;67472;51.554;7.812;2023-04-01T04:35:56;98645.13;;;8.99;100.00
78198;BME280;67472;51.554;7.812;2023-04-01T04:38:42;98662.88;;;9.05;100.00
78198;BME280;67472;51.554;7.812;2023-04-01T04:41:27;98657.75;;;9.03;100.00
78198;BME280;67472;51.554;7.812;2023-04-01T04:44:12;98658.59;;;8.96;100.00
78198;BME280;67472;51.554;7.812;2023-04-01T04:46:57;98678.84;;;8.95;100.00
78198;BME280;67472;51.554;7.812;2023-04-01T04:49:42;98684.44;;;9.00;100.00
78198;BME280;67472;51.554;7.812;2023-04-01T04:52:27;98678.50;;;9.06;100.00
78198;BME280;67472;51.554;7.812;2023-04-01T04:55:12;98689.69;;;9.00;100.00
78198;BME280;67472;51.554;7.812;2023-04-01T04:58:00;98699.41;;;8.92;100.00
78198;BME280;67472;51.554;7.812;2023-04-01T05:00:46;98701.72;;;8.95;100.00
78198;BME280;67472;51.554;7.812;2023-04-01T05:03:39;98693.97;;;8.85;100.00
78198;BME280;67472;51.554;7.812;2023-04-01T05:06:24;98698.75;;;8.90;100.00
78198;BME280;67472;51.554;7.812;2023-04-01T05:09:10;98715.38;;;8.98;100.00
78198;BME280;67472;51.554;7.812;2023-04-01T05:11:55;98712.75;;;8.98;100.00
78198;BME280;67472;51.554;7.812;2023-04-01T05:14:41;98717.69;;;9.01;100.00
78198;BME280;67472;51.554;7.812;2023-04-01T05:17:28;98712.91;;;9.05;100.00
78198;BME280;67472;51.554;7.812;2023-04-01T05:20:14;98714.88;;;9.11;100.00
78198;BME280;67472;51.554;7.812;2023-04-01T05:23:00;98717.34;;;9.04;100.00
78198;BME280;67472;51.554;7.812;2023-04-01T05:25:45;98716.69;;;9.11;100.00
78198;BME280;67472;51.554;7.812;2023-04-01T05:28:30;98710.75;;;9.08;100.00
78198;BME280;67472;51.554;7.812;2023-04-01T05:31:15;98713.72;;;9.22;100.00
78198;BME280;67472;51.554;7.812;2023-04-01T05:34:03;98704.50;;;9.18;100.00
78198;BME280;67472;51.554;7.812;2023-04-01T05:36:48;98707.13;;;9.18;100.00
78198;BME280;67472;51.554;7.812;2023-04-01T05:39:37;98715.53;;;9.21;100.00
78198;BME280;67472;51.554;7.812;2023-04-01T05:42:22;98707.63;;;9.37;100.00
78198;BME280;67472;51.554;7.812;2023-04-01T05:45:07;98708.75;;;9.35;100.00
78198;BME280;67472;51.554;7.812;2023-04-01T05:48:11;98717.81;;;9.24;100.00
78198;BME280;67472;51.554;7.812;2023-04-01T05:50:58;98711.06;;;9.30;100.00
78198;BME280;67472;51.554;7.812;2023-04-01T05:53:43;98711.06;;;9.30;100.00
78198;BME280;67472;51.554;7.812;2023-04-01T05:56:28;98711.88;;;9.38;100.00
78198;BME280;67472;51.554;7.812;2023-04-01T05:59:13;98717.66;;;9.34;100.00
78198;BME280;67472;51.554;7.812;2023-04-01T06:01:59;98716.66;;;9.43;100.00
78198;BME280;67472;51.554;7.812;2023-04-01T06:04:44;98717.78;;;9.40;100.00
78198;BME280;67472;51.554;7.812;2023-04-01T06:07:29;98720.25;;;9.50;100.00
78198;BME280;67472;51.554;7.812;2023-04-01T06:10:20;98727.81;;;9.61;100.00
78198;BME280;67472;51.554;7.812;2023-04-01T06:19:47;98729.88;;;9.82;100.00
78198;BME280;67472;51.554;7.812;2023-04-01T06:28:52;98722.84;;;9.74;100.00
78198;BME280;67472;51.554;7.812;2023-04-01T06:54:35;98734.69;;;10.25;100.00
78198;BME280;67472;51.554;7.812;2023-04-01T06:57:47;98731.97;;;10.41;100.00
78198;BME280;67472;51.554;7.812;2023-04-01T07:00:36;98733.84;;;10.25;100.00
78198;BME280;67472;51.554;7.812;2023-04-01T07:06:59;98736.25;;;10.42;100.00
78198;BME280;67472;51.554;7.812;2023-04-01T07:09:49;98742.19;;;10.44;100.00
78198;BME280;67472;51.554;7.812;2023-04-01T07:12:50;98735.09;;;10.45;100.00
78198;BME280;67472;51.554;7.812;2023-04-01T07:16:13;98737.75;;;10.45;100.00
78198;BME280;67472;51.554;7.812;2023-04-01T07:22:33;98744.66;;;10.76;100.00
78198;BME280;67472;51.554;7.812;2023-04-01T07:25:43;98738.13;;;10.87;100.00
78198;BME280;67472;51.554;7.812;2023-04-01T07:28:57;98735.47;;;10.87;100.00
78198;BME280;67472;51.554;7.812;2023-04-01T07:44:34;98732.34;;;10.84;100.00
78198;BME280;67472;51.554;7.812;2023-04-01T07:56:35;98736.38;;;11.02;100.00
78198;BME280;67472;51.554;7.812;2023-04-01T07:59:42;98737.56;;;10.92;100.00
78198;BME280;67472;51.554;7.812;2023-04-01T08:03:33;98742.69;;;10.93;100.00
78198;BME280;67472;51.554;7.812;2023-04-01T08:06:39;98750.22;;;10.82;100.00
78198;BME280;67472;51.554;7.812;2023-04-01T08:09:43;98755.97;;;10.85;100.00
78198;BME280;67472;51.554;7.812;2023-04-01T08:13:14;98759.66;;;10.76;100.00
78198;BME280;67472;51.554;7.812;2023-04-01T08:22:27;98773.50;;;10.78;100.00
78198;BME280;67472;51.554;7.812;2023-04-01T08:25:22;98774.69;;;10.75;100.00
78198;BME280;67472;51.554;7.812;2023-04-01T08:32:05;98786.72;;;10.78;100.00
78198;BME280;67472;51.554;7.812;2023-04-01T08:38:06;98786.34;;;10.81;100.00
78198;BME280;67472;51.554;7.812;2023-04-01T08:47:09;98790.41;;;10.92;100.00
78198;BME280;67472;51.554;7.812;2023-04-01T09:03:43;98811.50;;;11.22;100.00
78198;BME280;67472;51.554;7.812;2023-04-01T09:06:44;98805.88;;;11.25;100.00
78198;BME280;67472;51.554;7.812;2023-04-01T09:10:06;98812.28;;;11.31;100.00
78198;BME280;67472;51.554;7.812;2023-04-01T09:19:31;98805.50;;;11.51;100.00
78198;BME280;67472;51.554;7.812;2023-04-01T09:35:00;98808.09;;;11.37;100.00
78198;BME280;67472;51.554;7.812;2023-04-01T09:37:53;98813.94;;;11.47;100.00
78198;BME280;67472;51.554;7.812;2023-04-01T09:44:14;98822.13;;;11.37;100.00
78198;BME280;67472;51.554;7.812;2023-04-01T09:50:36;98841.06;;;11.26;100.00
78198;BME280;67472;51.554;7.812;2023-04-01T10:49:58;98886.41;;;11.07;100.00
78198;BME280;67472;51.554;7.812;2023-04-01T11:00:13;98907.94;;;10.96;100.00
78198;BME280;67472;51.554;7.812;2023-04-01T11:13:01;98911.09;;;11.75;100.00
78198;BME280;67472;51.554;7.812;2023-04-01T11:26:00;98906.53;;;11.39;100.00
78198;BME280;67472;51.554;7.812;2023-04-01T11:32:38;98916.22;;;11.77;100.00
78198;BME280;67472;51.554;7.812;2023-04-01T11:51:38;98919.84;;;11.76;100.00
78198;BME280;67472;51.554;7.812;2023-04-01T12:22:49;98963.13;;;11.83;100.00
78198;BME280;67472;51.554;7.812;2023-04-01T12:25:56;98965.75;;;11.83;100.00
78198;BME280;67472;51.554;7.812;2023-04-01T12:41:13;98987.94;;;11.12;100.00
78198;BME280;67472;51.554;7.812;2023-04-01T12:47:59;99010.78;;;11.05;100.00
78198;BME280;67472;51.554;7.812;2023-04-01T12:57:49;99021.81;;;11.17;100.00
78198;BME280;67472;51.554;7.812;2023-04-01T13:04:22;99031.94;;;11.67;100.00
78198;BME280;67472;51.554;7.812;2023-04-01T13:10:31;99033.56;;;11.84;100.00
78198;BME280;67472;51.554;7.812;2023-04-01T13:13:31;99033.25;;;11.79;100.00
78198;BME280;67472;51.554;7.812;2023-04-01T13:16:29;99035.44;;;11.67;100.00
78198;BME280;67472;51.554;7.812;2023-04-01T13:22:17;99034.50;;;11.60;100.00
78198;BME280;67472;51.554;7.812;2023-04-01T13:28:27;99046.94;;;11.44;100.00
78198;BME280;67472;51.554;7.812;2023-04-01T13:31:32;99045.81;;;11.46;100.00
78198;BME280;67472;51.554;7.812;2023-04-01T13:34:24;99046.16;;;11.43;100.00
78198;BME280;67472;51.554;7.812;2023-04-01T13:43:37;99062.63;;;11.14;100.00
78198;BME280;67472;51.554;7.812;2023-04-01T13:50:06;99094.44;;;11.21;100.00
78198;BME280;67472;51.554;7.812;2023-04-01T14:06:13;99107.19;;;11.09;100.00
78198;BME280;67472;51.554;7.812;2023-04-01T14:09:08;99113.34;;;11.02;100.00
78198;BME280;67472;51.554;7.812;2023-04-01T14:15:25;99128.31;;;11.17;100.00
78198;BME280;67472;51.554;7.812;2023-04-01T14:21:47;99138.28;;;10.99;100.00
78198;BME280;67472;51.554;7.812;2023-04-01T14:27:25;99146.03;;;10.93;100.00
78198;BME280;67472;51.554;7.812;2023-04-01T14:40:05;99155.59;;;11.02;100.00
78198;BME280;67472;51.554;7.812;2023-04-01T14:49:00;99160.38;;;11.14;100.00
78198;BME280;67472;51.554;7.812;2023-04-01T14:51:47;99167.47;;;11.22;100.00
78198;BME280;67472;51.554;7.812;2023-04-01T14:54:36;99162.00;;;11.23;100.00
78198;BME280;67472;51.554;7.812;2023-04-01T14:57:31;99161.88;;;11.17;100.00
78198;BME280;67472;51.554;7.812;2023-04-01T15:00:19;99162.81;;;11.24;100.00
78198;BME280;67472;51.554;7.812;2023-04-01T15:03:26;99165.63;;;11.30;100.00
78198;BME280;67472;51.554;7.812;2023-04-01T15:12:40;99165.47;;;11.24;100.00
78198;BME280;67472;51.554;7.812;2023-04-01T15:24:59;99172.09;;;11.12;100.00
78198;BME280;67472;51.554;7.812;2023-04-01T15:29:10;99159.91;;;11.03;100.00
78198;BME280;67472;51.554;7.812;2023-04-01T15:34:38;99183.97;;;11.24;100.00
78198;BME280;67472;51.554;7.812;2023-04-01T15:40:47;99189.59;;;11.13;100.00
78198;BME280;67472;51.554;7.812;2023-04-01T15:43:46;99201.50;;;11.09;100.00
78198;BME280;67472;51.554;7.812;2023-04-01T15:46:46;99207.47;;;11.11;100.00
78198;BME280;67472;51.554;7.812;2023-04-01T15:49:44;99211.25;;;11.16;100.00
78198;BME280;67472;51.554;7.812;2023-04-01T15:52:43;99218.19;;;11.09;100.00
78198;BME280;67472;51.554;7.812;2023-04-01T16:02:31;99224.44;;;11.00;100.00
78198;BME280;67472;51.554;7.812;2023-04-01T16:05:35;99230.91;;;10.98;100.00
78198;BME280;67472;51.554;7.812;2023-04-01T16:08:39;99233.03;;;10.94;100.00
78198;BME280;67472;51.554;7.812;2023-04-01T16:12:31;99240.16;;;10.94;100.00
78198;BME280;67472;51.554;7.812;2023-04-01T16:21:09;99252.38;;;11.03;100.00
78198;BME280;67472;51.554;7.812;2023-04-01T16:23:58;99253.19;;;10.95;100.00
78198;BME280;67472;51.554;7.812;2023-04-01T16:26:51;99262.28;;;11.01;100.00
78198;BME280;67472;51.554;7.812;2023-04-01T16:29:40;99262.41;;;10.83;100.00
78198;BME280;67472;51.554;7.812;2023-04-01T16:32:53;99272.66;;;10.86;100.00
78198;BME280;67472;51.554;7.812;2023-04-01T16:36:05;99276.44;;;10.75;100.00
78198;BME280;67472;51.554;7.812;2023-04-01T16:39:28;99283.53;;;10.83;100.00
78198;BME280;67472;51.554;7.812;2023-04-01T16:42:24;99298.09;;;10.87;100.00
78198;BME280;67472;51.554;7.812;2023-04-01T16:48:17;99305.19;;;10.87;100.00
78198;BME280;67472;51.554;7.812;2023-04-01T16:51:13;99306.84;;;10.80;100.00
78198;BME280;67472;51.554;7.812;2023-04-01T16:54:10;99318.03;;;10.73;100.00
78198;BME280;67472;51.554;7.812;2023-04-01T16:57:10;99322.31;;;10.66;100.00
78198;BME280;67472;51.554;7.812;2023-04-01T17:06:02;99339.66;;;10.77;100.00
78198;BME280;67472;51.554;7.812;2023-04-01T17:08:59;99343.44;;;10.66;100.00
78198;BME280;67472;51.554;7.812;2023-04-01T17:20:54;99366.25;;;10.75;100.00
78198;BME280;67472;51.554;7.812;2023-04-01T17:30:02;99391.72;;;10.51;100.00
78198;BME280;67472;51.554;7.812;2023-04-01T17:36:00;99404.13;;;10.58;100.00
78198;BME280;67472;51.554;7.812;2023-04-01T17:39:02;99416.16;;;10.53;100.00
78198;BME280;67472;51.554;7.812;2023-04-01T17:41:55;99421.56;;;10.51;100.00
78198;BME280;67472;51.554;7.812;2023-04-01T17:44:58;99421.44;;;10.53;100.00
78198;BME280;67472;51.554;7.812;2023-04-01T18:00:27;99444.88;;;10.56;100.00
78198;BME280;67472;51.554;7.812;2023-04-01T18:06:50;99449.91;;;10.67;100.00
78198;BME280;67472;51.554;7.812;2023-04-01T18:09:52;99450.34;;;10.62;100.00
78198;BME280;67472;51.554;7.812;2023-04-01T18:15:46;99460.88;;;10.54;100.00
78198;BME280;67472;51.554;7.812;2023-04-01T18:21:56;99476.88;;;10.53;100.00
78198;BME280;67472;51.554;7.812;2023-04-01T18:27:52;99479.84;;;10.50;100.00
78198;BME280;67472;51.554;7.812;2023-04-01T18:30:39;99493.88;;;10.50;100.00
78198;BME280;67472;51.554;7.812;2023-04-01T18:33:43;99497.16;;;10.52;100.00
78198;BME280;67472;51.554;7.812;2023-04-01T18:39:42;99512.03;;;10.53;100.00
78198;BME280;67472;51.554;7.812;2023-04-01T18:46:07;99519.66;;;10.56;100.00
78198;BME280;67472;51.554;7.812;2023-04-01T18:52:09;99532.16;;;10.54;100.00
78198;BME280;67472;51.554;7.812;2023-04-01T18:55:22;99545.88;;;10.58;100.00
78198;BME280;67472;51.554;7.812;2023-04-01T18:58:34;99550.50;;;10.56;100.00
78198;BME280;67472;51.554;7.812;2023-04-01T19:04:21;99564.63;;;10.47;100.00
78198;BME280;67472;51.554;7.812;2023-04-01T19:07:40;99562.50;;;10.50;100.00
78198;BME280;67472;51.554;7.812;2023-04-01T19:13:40;99579.47;;;10.48;100.00
78198;BME280;67472;51.554;7.812;2023-04-01T19:25:39;99613.41;;;10.43;100.00
78198;BME280;67472;51.554;7.812;2023-04-01T19:28:43;99617.56;;;10.45;100.00
78198;BME280;67472;51.554;7.812;2023-04-01T19:31:51;99624.66;;;10.45;100.00
78198;BME280;67472;51.554;7.812;2023-04-01T19:34:43;99628.94;;;10.46;100.00
78198;BME280;67472;51.554;7.812;2023-04-01T19:37:40;99631.28;;;10.49;100.00
78198;BME280;67472;51.554;7.812;2023-04-01T19:43:54;99640.81;;;10.42;100.00
78198;BME280;67472;51.554;7.812;2023-04-01T19:46:46;99650.84;;;10.38;100.00
78198;BME280;67472;51.554;7.812;2023-04-01T19:52:40;99666.22;;;10.43;100.00
78198;BME280;67472;51.554;7.812;2023-04-01T19:55:52;99675.50;;;10.47;100.00
78198;BME280;67472;51.554;7.812;2023-04-01T20:05:33;99697.75;;;10.44;100.00
78198;BME280;67472;51.554;7.812;2023-04-01T20:11:53;99700.28;;;10.36;100.00
78198;BME280;67472;51.554;7.812;2023-04-01T20:14:47;99697.53;;;10.38;100.00
78198;BME280;67472;51.554;7.812;2023-04-01T20:20:25;99721.75;;;10.33;100.00
78198;BME280;67472;51.554;7.812;2023-04-01T20:26:01;99745.81;;;10.20;100.00
78198;BME280;67472;51.554;7.812;2023-04-01T20:41:28;99808.13;;;9.00;100.00
78198;BME280;67472;51.554;7.812;2023-04-01T20:56:44;99858.91;;;8.62;100.00
78198;BME280;67472;51.554;7.812;2023-04-01T20:59:55;99872.53;;;8.67;100.00
78198;BME280;67472;51.554;7.812;2023-04-01T21:02:53;99880.66;;;8.55;100.00
78198;BME280;67472;51.554;7.812;2023-04-01T21:24:44;99937.53;;;8.25;100.00
78198;BME280;67472;51.554;7.812;2023-04-01T21:39:44;99972.97;;;7.80;100.00
78198;BME280;67472;51.554;7.812;2023-04-01T21:52:22;100004.72;;;7.56;100.00
78198;BME280;67472;51.554;7.812;2023-04-01T21:59:04;100025.25;;;7.62;100.00
78198;BME280;67472;51.554;7.812;2023-04-01T22:05:35;100037.47;;;7.41;100.00
78198;BME280;67472;51.554;7.812;2023-04-01T22:08:29;100043.09;;;7.36;100.00
78198;BME280;67472;51.554;7.812;2023-04-01T22:20:21;100065.91;;;7.25;100.00
78198;BME280;67472;51.554;7.812;2023-04-01T22:26:30;100066.41;;;7.19;100.00
78198;BME280;67472;51.554;7.812;2023-04-01T22:29:22;100081.41;;;7.17;100.00
78198;BME280;67472;51.554;7.812;2023-04-01T22:32:46;100084.19;;;7.15;100.00
78198;BME280;67472;51.554;7.812;2023-04-01T22:35:54;100083.34;;;7.04;100.00
78198;BME280;67472;51.554;7.812;2023-04-01T22:45:31;100096.72;;;7.01;100.00
78198;BME280;67472;51.554;7.812;2023-04-01T22:54:45;100113.88;;;6.82;100.00
78198;BME280;67472;51.554;7.812;2023-04-01T22:57:37;100113.75;;;6.84;100.00
78198;BME280;67472;51.554;7.812;2023-04-01T23:00:30;100114.47;;;6.86;100.00
78198;BME280;67472;51.554;7.812;2023-04-01T23:03:40;100117.94;;;6.87;100.00
78198;BME280;67472;51.554;7.812;2023-04-01T23:06:35;100121.03;;;6.80;100.00
78198;BME280;67472;51.554;7.812;2023-04-01T23:09:31;100131.28;;;6.72;100.00
78198;BME280;67472;51.554;7.812;2023-04-01T23:12:19;100135.56;;;6.73;100.00
78198;BME280;67472;51.554;7.812;2023-04-01T23:15:12;100135.22;;;6.67;100.00
78198;BME280;67472;51.554;7.812;2023-04-01T23:18:05;100144.03;;;6.66;100.00
78198;BME280;67472;51.554;7.812;2023-04-01T23:20:58;100143.63;;;6.59;100.00
78198;BME280;67472;51.554;7.812;2023-04-01T23:26:50;100157.03;;;6.67;100.00
78198;BME280;67472;51.554;7.812;2023-04-01T23:29:38;100161.41;;;6.56;100.00
78198;BME280;67472;51.554;7.812;2023-04-01T23:32:27;100167.47;;;6.56;100.00
78198;BME280;67472;51.554;7.812;2023-04-01T23:35:15;100169.38;;;6.54;100.00
78198;BME280;67472;51.554;7.812;2023-04-01T23:38:01;100170.28;;;6.42;100.00
78198;BME280;67472;51.554;7.812;2023-04-01T23:40:51;100170.69;;;6.49;100.00
78198;BME280;67472;51.554;7.812;2023-04-01T23:43:38;100174.38;;;6.46;100.00
78198;BME280;67472;51.554;7.812;2023-04-01T23:46:25;100183.25;;;6.33;100.00
78198;BME280;67472;51.554;7.812;2023-04-01T23:49:21;100197.19;;;6.33;100.00
78198;BME280;67472;51.554;7.812;2023-04-01T23:55:08;100201.75;;;6.18;100.00
